Time;durP1;ratioP1;P1;durP2;ratioP2;P2;SDS_P1;SDS_P2;PMS_P1;PMS_P2;Temp;Humidity;BMP_temperature;BMP_pressure;BME280_temperature;BME280_humidity;BME280_pressure;Samples;Min_cycle;Max_cycle;Signal;HPM_P1;HPM_P2
2023/09/08 00:01:35;;;;;;;12.55;8.75;;;19.50;99.90;;;18.98;100.00;101137.44;4154046;28;20064;-73
2023/09/08 00:03:36;;;;;;;9.18;7.35;;;19.50;99.90;;;19.01;100.00;101139.72;4153990;28;20405;-73
2023/09/08 00:05:37;;;;;;;14.13;7.78;;;19.50;99.90;;;19.02;100.00;101143.22;4155097;28;20030;-73
2023/09/08 00:07:37;;;;;;;9.85;7.28;;;19.50;99.90;;;19.02;100.00;101145.88;4154728;28;20030;-73
2023/09/08 00:09:38;;;;;;;10.48;8.18;;;19.50;99.90;;;19.03;100.00;101143.00;4155238;28;20026;-73
2023/09/08 00:11:39;;;;;;;9.77;7.95;;;19.50;99.90;;;19.11;100.00;101147.34;4153833;28;20029;-73
2023/09/08 00:13:40;;;;;;;9.27;7.53;;;19.50;99.90;;;19.11;100.00;101140.16;4155024;28;20057;-73
2023/09/08 00:15:41;;;;;;;12.95;7.10;;;19.60;99.90;;;19.14;100.00;101138.94;4154912;28;20026;-73
2023/09/08 00:17:42;;;;;;;8.70;6.90;;;19.60;99.90;;;19.13;100.00;101137.25;4154900;28;20038;-73
2023/09/08 00:19:43;;;;;;;10.52;7.18;;;19.60;99.90;;;19.13;100.00;101143.44;4153769;28;20117;-73
2023/09/08 00:21:44;;;;;;;12.43;7.68;;;19.60;99.90;;;19.13;100.00;101142.63;4154708;28;20072;-73
2023/09/08 00:23:44;;;;;;;10.57;7.57;;;19.60;99.90;;;19.10;100.00;101140.34;4154790;28;20505;-73
2023/09/08 00:25:45;;;;;;;8.35;7.22;;;19.60;99.90;;;19.14;100.00;101144.28;4151576;28;20030;-73
2023/09/08 00:27:46;;;;;;;10.95;7.55;;;19.60;99.90;;;19.16;100.00;101151.06;4144840;28;20030;-73
2023/09/08 00:29:47;;;;;;;8.10;7.15;;;19.60;99.90;;;19.19;100.00;101155.19;4154779;28;20026;-73
2023/09/08 00:31:48;;;;;;;11.60;7.03;;;19.60;99.90;;;19.23;100.00;101165.25;4154857;28;20022;-73
2023/09/08 00:33:49;;;;;;;7.38;6.57;;;19.60;99.90;;;19.26;100.00;101156.03;4154708;28;20030;-73
2023/09/08 00:35:50;;;;;;;8.95;7.50;;;19.70;99.90;;;19.27;100.00;101158.50;4151891;28;20100;-73
2023/09/08 00:37:50;;;;;;;10.85;7.95;;;19.70;99.90;;;19.30;100.00;101157.25;4153182;28;20033;-73
2023/09/08 00:39:51;;;;;;;12.48;8.27;;;19.70;99.90;;;19.31;100.00;101150.88;4153225;28;20061;-73
2023/09/08 00:41:52;;;;;;;12.00;8.38;;;19.70;99.90;;;19.31;100.00;101151.72;4153188;28;20045;-73
2023/09/08 00:43:53;;;;;;;17.15;8.23;;;19.80;99.90;;;19.28;100.00;101136.06;4154706;28;20033;-73
2023/09/08 00:45:55;;;;;;;14.68;7.40;;;19.80;99.90;;;19.30;100.00;101144.72;4153302;28;20423;-73
2023/09/08 00:47:56;;;;;;;8.57;7.15;;;19.80;99.90;;;19.30;100.00;101152.72;4154386;28;20057;-73
2023/09/08 00:49:57;;;;;;;8.88;7.20;;;19.70;99.90;;;19.27;100.00;101147.78;4153008;28;20030;-73
2023/09/08 00:51:58;;;;;;;8.55;6.93;;;19.70;99.90;;;19.24;100.00;101150.88;4154144;28;20028;-73
2023/09/08 00:53:59;;;;;;;7.95;6.70;;;19.70;99.90;;;19.21;100.00;101145.09;4154397;28;20026;-73
2023/09/08 00:56:00;;;;;;;10.38;7.45;;;19.70;99.90;;;19.18;100.00;101145.50;4154297;28;20044;-73
2023/09/08 00:58:03;;;;;;;13.10;7.75;;;19.70;99.90;;;19.14;100.00;101144.28;4154190;28;20037;-73
2023/09/08 01:00:05;;;;;;;9.98;7.15;;;19.60;99.90;;;19.12;100.00;101141.78;4153918;28;20057;-73
2023/09/08 01:02:06;;;;;;;9.00;7.18;;;19.60;99.90;;;19.10;100.00;101138.50;4153109;28;20040;-73
2023/09/08 01:04:07;;;;;;;8.63;6.78;;;19.60;99.90;;;19.10;100.00;101133.16;4153233;28;20030;-73
2023/09/08 01:06:08;;;;;;;11.73;7.30;;;19.60;99.90;;;19.13;100.00;101150.63;4154043;28;20030;-73
2023/09/08 01:08:09;;;;;;;9.43;6.60;;;19.60;99.90;;;19.14;100.00;101144.28;4153974;28;20057;-73
2023/09/08 01:10:11;;;;;;;7.80;6.72;;;19.60;99.90;;;19.18;100.00;101148.16;4154251;28;20037;-73
2023/09/08 01:12:12;;;;;;;8.93;6.80;;;19.60;99.90;;;19.19;100.00;101136.47;4154203;28;20390;-73
2023/09/08 01:14:13;;;;;;;10.20;6.47;;;19.70;99.90;;;19.21;100.00;101142.41;4152786;28;20030;-73
2023/09/08 01:16:14;;;;;;;8.60;6.30;;;19.70;99.90;;;19.25;100.00;101146.34;4154089;28;20033;-73
2023/09/08 01:18:15;;;;;;;8.18;7.10;;;19.60;99.90;;;19.26;100.00;101143.47;4154062;28;20445;-73
2023/09/08 01:20:47;;;;;;;8.65;6.80;;;19.70;99.90;;;19.29;100.00;101143.03;4153966;28;20021;-73
2023/09/08 01:23:21;;;;;;;10.50;6.15;;;19.70;99.90;;;19.33;100.00;101138.13;4138890;28;20040;-73
2023/09/08 01:25:25;;;;;;;11.27;7.30;;;19.70;99.90;;;19.32;100.00;101139.16;4150799;28;20088;-73
2023/09/08 01:27:28;;;;;;;10.52;7.40;;;19.80;99.90;;;19.34;100.00;101134.44;4152875;28;20415;-73
2023/09/08 01:29:30;;;;;;;10.50;6.55;;;19.80;99.90;;;19.33;100.00;101128.25;4153773;28;20018;-73
2023/09/08 01:31:32;;;;;;;12.00;6.97;;;19.80;99.90;;;19.32;100.00;101131.16;4152651;28;20076;-73
2023/09/08 01:33:33;;;;;;;12.20;6.93;;;19.80;99.90;;;19.31;100.00;101132.16;4153662;28;20482;-73
2023/09/08 01:35:35;;;;;;;8.13;6.32;;;19.80;99.90;;;19.31;100.00;101132.16;4151755;28;20030;-73
2023/09/08 01:37:39;;;;;;;10.48;7.00;;;19.80;99.90;;;19.32;100.00;101133.81;4152346;28;20109;-73
2023/09/08 01:39:40;;;;;;;8.40;7.18;;;19.80;99.90;;;19.30;100.00;101125.16;4152325;28;20046;-73
2023/09/08 01:41:40;;;;;;;9.32;6.55;;;19.80;99.90;;;19.32;100.00;101117.78;4153588;28;20025;-73
2023/09/08 01:43:41;;;;;;;8.98;6.53;;;19.80;99.90;;;19.33;100.00;101119.41;4152552;28;20053;-73
2023/09/08 01:45:42;;;;;;;8.25;6.85;;;19.80;99.90;;;19.31;100.00;101119.63;4153604;28;20030;-73
2023/09/08 01:47:43;;;;;;;10.20;7.32;;;19.80;99.90;;;19.30;100.00;101117.13;4153471;28;20040;-73
2023/09/08 01:49:44;;;;;;;9.15;6.82;;;19.80;99.90;;;19.25;100.00;101112.41;4152203;28;20026;-73
2023/09/08 01:51:45;;;;;;;8.13;6.72;;;19.70;99.90;;;19.22;100.00;101115.47;4152146;28;20072;-73
2023/09/08 01:53:45;;;;;;;7.65;6.95;;;19.70;99.90;;;19.22;100.00;101122.69;4145619;28;20459;-73
2023/09/08 01:55:46;;;;;;;9.23;6.93;;;19.70;99.90;;;19.19;100.00;101117.72;4147175;28;20030;-73
2023/09/08 01:57:47;;;;;;;10.57;7.47;;;19.60;99.90;;;19.14;100.00;101110.34;4135780;28;20027;-73
2023/09/08 01:59:48;;;;;;;10.13;7.22;;;19.60;99.90;;;19.12;100.00;101117.72;4152515;28;20069;-73
2023/09/08 02:01:49;;;;;;;10.02;7.00;;;19.60;99.90;;;19.13;100.00;101122.03;4152063;28;20030;-73
2023/09/08 02:03:50;;;;;;;10.95;7.28;;;19.60;99.90;;;19.14;100.00;101123.72;4152125;28;20136;-73
2023/09/08 02:05:51;;;;;;;9.70;7.30;;;19.60;99.90;;;19.13;100.00;101124.72;4153234;28;20034;-73
2023/09/08 02:07:51;;;;;;;8.80;7.20;;;19.60;99.90;;;19.08;100.00;101113.00;4152894;28;20467;-73
2023/09/08 02:09:52;;;;;;;13.52;7.95;;;19.60;99.90;;;19.10;100.00;101116.28;4153213;28;20029;-73
2023/09/08 02:11:53;;;;;;;10.55;7.78;;;19.60;99.90;;;19.05;100.00;101124.09;4143972;28;20391;-73
2023/09/08 02:13:54;;;;;;;9.88;8.15;;;19.50;99.90;;;19.07;100.00;101130.06;4148233;28;20022;-73
2023/09/08 02:15:55;;;;;;;8.77;7.60;;;19.50;99.90;;;19.04;100.00;101125.94;4153202;28;20025;-73
2023/09/08 02:17:56;;;;;;;10.77;7.47;;;19.50;99.90;;;19.04;100.00;101130.44;4153066;28;20053;-73
2023/09/08 02:19:57;;;;;;;11.52;7.60;;;19.50;99.90;;;19.02;100.00;101135.19;4153150;28;20034;-73
2023/09/08 02:21:58;;;;;;;9.05;7.30;;;19.50;99.90;;;19.01;100.00;101123.66;4151658;28;20060;-73
2023/09/08 02:23:59;;;;;;;9.68;8.18;;;19.50;99.90;;;19.01;100.00;101122.84;4152889;28;20038;-73
2023/09/08 02:26:00;;;;;;;9.23;8.15;;;19.50;99.90;;;19.03;100.00;101129.63;4153126;28;20485;-73
2023/09/08 02:28:01;;;;;;;12.90;8.27;;;19.50;99.90;;;19.00;100.00;101123.84;4152904;28;20030;-73
2023/09/08 02:30:02;;;;;;;10.25;8.18;;;19.50;99.90;;;19.03;100.00;101123.44;4151745;28;20029;-73
2023/09/08 02:32:03;;;;;;;9.05;8.15;;;19.50;99.90;;;19.01;100.00;101122.84;4152797;28;20061;-73
2023/09/08 02:34:04;;;;;;;9.27;7.45;;;19.50;99.90;;;18.99;100.00;101124.91;4151762;28;20544;-73
2023/09/08 02:36:06;;;;;;;12.80;7.82;;;19.40;99.90;;;18.98;100.00;101128.59;4150357;28;20025;-73
2023/09/08 02:38:07;;;;;;;11.85;8.00;;;19.50;99.90;;;18.97;100.00;101121.56;4151031;28;20030;-73
2023/09/08 02:40:08;;;;;;;13.23;7.97;;;19.40;99.90;;;18.98;100.00;101128.59;4151535;28;20029;-73
2023/09/08 02:42:08;;;;;;;11.35;7.30;;;19.50;99.90;;;18.97;100.00;101127.75;4152766;28;20022;-73
2023/09/08 02:44:09;;;;;;;11.02;8.05;;;19.50;99.90;;;18.97;100.00;101132.28;4152735;28;20456;-73
2023/09/08 02:46:10;;;;;;;12.13;7.22;;;19.50;99.90;;;18.95;100.00;101126.31;4152849;28;20101;-73
2023/09/08 02:48:11;;;;;;;10.68;8.82;;;19.50;99.90;;;18.95;100.00;101124.47;4152455;28;20057;-73
2023/09/08 02:50:12;;;;;;;8.77;7.85;;;19.50;99.90;;;18.94;100.00;101124.66;4152755;28;20022;-73
2023/09/08 02:52:13;;;;;;;8.30;6.93;;;19.40;99.90;;;18.90;100.00;101126.94;4152461;28;20034;-73
2023/09/08 02:54:13;;;;;;;11.27;7.47;;;19.40;99.90;;;18.87;100.00;101121.97;4150967;28;20128;-73
2023/09/08 02:56:14;;;;;;;7.50;6.55;;;19.40;99.90;;;18.82;100.00;101127.09;4152679;28;20099;-73
2023/09/08 02:58:15;;;;;;;9.00;7.50;;;19.30;99.90;;;18.82;100.00;101129.75;4152667;28;20026;-73
2023/09/08 03:00:16;;;;;;;10.55;7.93;;;19.30;99.90;;;18.81;100.00;101129.97;4152544;28;20037;-73
2023/09/08 03:02:17;;;;;;;11.85;9.13;;;19.30;99.90;;;18.79;100.00;101122.97;4152818;28;20072;-73
2023/09/08 03:04:18;;;;;;;11.73;7.82;;;19.30;99.90;;;18.77;100.00;101127.69;4152464;28;20378;-73
2023/09/08 03:06:21;;;;;;;9.43;7.03;;;19.20;99.90;;;18.73;100.00;101125.63;4152049;28;20033;-73
2023/09/08 03:08:23;;;;;;;11.77;8.27;;;19.20;99.90;;;18.71;100.00;101123.16;4151304;28;20038;-73
2023/09/08 03:10:24;;;;;;;10.55;8.90;;;19.20;99.90;;;18.69;100.00;101121.72;4152433;28;20036;-73
2023/09/08 03:12:24;;;;;;;11.43;8.10;;;19.20;99.90;;;18.70;100.00;101126.84;4152402;28;20405;-73
2023/09/08 03:14:25;;;;;;;11.80;8.57;;;19.20;99.90;;;18.67;100.00;101116.53;4152216;28;20026;-73
2023/09/08 03:16:26;;;;;;;10.82;8.13;;;19.10;99.90;;;18.66;100.00;101119.44;4152321;28;20026;-73
2023/09/08 03:18:27;;;;;;;10.00;7.60;;;19.10;99.90;;;18.64;100.00;101127.63;4152371;28;20053;-73
2023/09/08 03:20:28;;;;;;;11.57;8.30;;;19.10;99.90;;;18.64;100.00;101118.78;4152258;28;20486;-73
2023/09/08 03:22:29;;;;;;;12.18;8.38;;;19.10;99.90;;;18.65;100.00;101118.59;4150754;28;20034;-73
2023/09/08 03:24:30;;;;;;;12.50;8.10;;;19.10;99.90;;;18.66;100.00;101120.25;4151223;28;20040;-73
2023/09/08 03:26:31;;;;;;;10.93;8.05;;;19.10;99.90;;;18.66;100.00;101119.44;4152230;28;20033;-73
2023/09/08 03:28:33;;;;;;;13.18;8.23;;;19.10;99.90;;;18.65;100.00;101110.59;4151069;28;20034;-73
2023/09/08 03:30:34;;;;;;;9.35;7.20;;;19.10;99.90;;;18.67;100.00;101111.19;4167076;28;20026;-73
2023/09/08 03:32:36;;;;;;;10.68;7.28;;;19.10;99.90;;;18.69;100.00;101109.19;4152380;28;20040;-73
2023/09/08 03:34:39;;;;;;;11.55;7.97;;;19.10;99.90;;;18.67;100.00;101105.84;4152281;28;20100;-73
2023/09/08 03:36:40;;;;;;;13.38;8.60;;;19.20;99.90;;;18.64;100.00;101103.59;4148230;28;20030;-73
2023/09/08 03:38:41;;;;;;;8.90;7.78;;;19.10;99.90;;;18.61;100.00;101101.31;4151888;28;20034;-73
2023/09/08 03:40:42;;;;;;;12.10;8.25;;;19.10;99.90;;;18.60;100.00;101105.03;4148417;28;20026;-73
2023/09/08 03:42:43;;;;;;;10.43;7.68;;;19.10;99.90;;;18.59;100.00;101106.03;4152125;28;20044;-73
2023/09/08 03:44:44;;;;;;;9.60;7.72;;;19.10;99.90;;;18.57;100.00;101102.75;4152050;28;20030;-73
2023/09/08 03:46:45;;;;;;;9.23;7.47;;;19.10;99.90;;;18.57;100.00;101099.25;4151948;28;20014;-73
2023/09/08 03:48:46;;;;;;;11.18;7.53;;;19.10;99.90;;;18.55;100.00;101102.09;4152151;28;20018;-73
2023/09/08 03:50:47;;;;;;;11.65;7.68;;;19.10;99.90;;;18.54;100.00;101099.66;4152126;28;20034;-73
2023/09/08 03:52:48;;;;;;;9.73;7.00;;;19.00;99.90;;;18.56;100.00;101108.28;4151837;28;20061;-73
2023/09/08 03:54:49;;;;;;;10.52;7.72;;;19.00;99.90;;;18.55;100.00;101102.09;4152046;28;20030;-73
2023/09/08 03:56:50;;;;;;;10.95;8.10;;;19.00;99.90;;;18.54;100.00;101108.50;4151957;28;20029;-73
2023/09/08 03:58:52;;;;;;;8.48;7.60;;;19.00;99.90;;;18.54;100.00;101102.31;4134538;28;20018;-73
2023/09/08 04:00:53;;;;;;;10.07;7.30;;;19.00;99.90;;;18.51;100.00;101106.22;4150650;28;20437;-73
2023/09/08 04:02:54;;;;;;;10.18;8.20;;;19.00;99.90;;;18.50;100.00;101104.56;4147733;28;20065;-73
2023/09/08 04:04:54;;;;;;;9.57;7.75;;;19.00;99.90;;;18.48;100.00;101106.59;4142879;28;20034;-73
2023/09/08 04:06:55;;;;;;;9.25;7.07;;;19.00;99.90;;;18.44;100.00;101102.66;4149234;28;20437;-73
2023/09/08 04:08:56;;;;;;;10.18;7.82;;;19.00;99.90;;;18.46;100.00;101103.25;4149885;28;20025;-73
2023/09/08 04:10:57;;;;;;;10.80;8.20;;;18.90;99.90;;;18.44;100.00;101101.81;4150668;28;20037;-73
2023/09/08 04:12:58;;;;;;;12.60;8.77;;;18.90;99.90;;;18.43;100.00;101103.66;4148904;28;20054;-73
2023/09/08 04:14:59;;;;;;;12.63;8.38;;;18.90;99.90;;;18.40;100.00;101096.03;4145072;28;20033;-73
2023/09/08 04:16:59;;;;;;;9.40;7.45;;;18.90;99.90;;;18.40;100.00;101097.91;4147725;28;20030;-73
2023/09/08 04:19:00;;;;;;;10.13;8.25;;;18.80;99.90;;;18.38;100.00;101098.09;4151778;28;20033;-73
2023/09/08 04:21:02;;;;;;;8.52;7.47;;;18.80;99.90;;;18.35;100.00;101101.16;4151984;28;20512;-73
2023/09/08 04:23:03;;;;;;;8.45;7.35;;;18.80;99.90;;;18.33;100.00;101103.22;4150485;28;20034;-73
2023/09/08 04:25:05;;;;;;;9.52;7.55;;;18.80;99.90;;;18.32;100.00;101100.72;4150834;28;20528;-73
2023/09/08 04:27:08;;;;;;;10.93;7.85;;;18.80;99.90;;;18.30;100.00;101102.78;4136505;28;20074;-73
2023/09/08 04:29:09;;;;;;;8.95;8.02;;;18.80;99.90;;;18.29;100.00;101104.63;4139643;28;20018;-73
2023/09/08 04:31:10;;;;;;;10.52;7.55;;;18.80;99.90;;;18.33;100.00;101091.72;4151792;28;20029;-73
2023/09/08 04:33:10;;;;;;;10.70;7.60;;;18.80;99.90;;;18.32;100.00;101096.22;4151782;28;20033;-73
2023/09/08 04:35:11;;;;;;;11.50;8.00;;;18.80;99.90;;;18.32;100.00;101090.88;4152156;28;20021;-73
2023/09/08 04:37:13;;;;;;;10.25;8.45;;;18.80;99.90;;;18.32;100.00;101088.22;4154497;28;20029;-73
2023/09/08 04:39:15;;;;;;;10.07;8.75;;;18.80;99.90;;;18.34;100.00;101082.69;4153334;28;20524;-73
2023/09/08 04:41:16;;;;;;;9.10;7.95;;;18.80;99.90;;;18.36;100.00;101084.13;4154529;28;20037;-73
2023/09/08 04:43:17;;;;;;;8.70;7.72;;;18.80;99.90;;;18.36;100.00;101086.81;4153160;28;20022;-73
2023/09/08 04:45:18;;;;;;;11.85;7.75;;;18.80;99.90;;;18.34;100.00;101086.16;4153841;28;20045;-73
2023/09/08 04:47:18;;;;;;;9.40;7.75;;;18.80;99.90;;;18.31;100.00;101083.88;4154225;28;20037;-73
2023/09/08 04:49:19;;;;;;;9.95;8.25;;;18.80;99.90;;;18.27;100.00;101085.31;4153207;28;20034;-73
2023/09/08 04:51:20;;;;;;;8.70;7.60;;;18.80;99.90;;;18.21;100.00;101091.44;4152975;28;20053;-73
2023/09/08 04:53:21;;;;;;;9.90;7.20;;;18.70;99.90;;;18.18;100.00;101089.16;4154498;28;20068;-73
2023/09/08 04:55:22;;;;;;;9.75;8.68;;;18.70;99.90;;;18.16;100.00;101085.84;4151746;28;20037;-73
2023/09/08 04:57:23;;;;;;;9.73;7.30;;;18.70;99.90;;;18.14;100.00;101086.06;4147392;28;20572;-74
2023/09/08 04:59:24;;;;;;;8.20;7.40;;;18.60;99.90;;;18.14;100.00;101090.56;4151774;28;20081;-73
2023/09/08 05:01:25;;;;;;;10.88;7.40;;;18.60;99.90;;;18.15;100.00;101097.56;4153164;28;20030;-73
2023/09/08 05:03:26;;;;;;;9.38;7.50;;;18.60;99.90;;;18.15;100.00;101094.91;4154250;28;20026;-73
2023/09/08 05:05:27;;;;;;;11.20;8.40;;;18.70;99.90;;;18.12;100.00;101092.63;4152254;28;20030;-73
2023/09/08 05:07:27;;;;;;;9.68;7.85;;;18.70;99.90;;;18.12;100.00;101087.28;4149124;28;20100;-73
2023/09/08 05:09:28;;;;;;;9.75;7.43;;;18.60;99.90;;;18.12;100.00;101085.44;4153052;28;20033;-73
2023/09/08 05:11:29;;;;;;;10.93;8.43;;;18.60;99.90;;;18.12;100.00;101085.44;4154129;28;20029;-73
2023/09/08 05:13:30;;;;;;;12.32;8.77;;;18.60;99.90;;;18.10;100.00;101084.78;4154145;28;20034;-73
2023/09/08 05:15:31;;;;;;;12.25;8.90;;;18.60;99.90;;;18.10;100.00;101092.81;4136631;28;20034;-73
2023/09/08 05:17:33;;;;;;;10.85;8.68;;;18.60;99.90;;;18.07;100.00;101095.06;4153611;28;20026;-73
2023/09/08 05:19:33;;;;;;;11.15;8.10;;;18.60;99.90;;;18.09;100.00;101095.69;4154017;28;20049;-73
2023/09/08 05:21:34;;;;;;;9.88;7.90;;;18.60;99.90;;;18.08;100.00;101094.84;4153799;28;20022;-73
2023/09/08 05:23:35;;;;;;;10.27;7.60;;;18.60;99.90;;;18.08;100.00;101099.38;4153983;28;20037;-73
2023/09/08 05:25:36;;;;;;;11.10;9.02;;;18.60;99.90;;;18.08;100.00;101094.03;4151558;28;20077;-73
2023/09/08 05:27:37;;;;;;;9.77;7.60;;;18.50;99.90;;;18.08;100.00;101102.03;4153878;28;20030;-73
2023/09/08 05:29:38;;;;;;;11.52;8.50;;;18.60;99.90;;;18.09;100.00;101107.19;4153749;28;20030;-73
2023/09/08 05:31:39;;;;;;;13.52;9.63;;;18.60;99.90;;;18.11;100.00;101096.31;4153779;28;20081;-73
2023/09/08 05:33:40;;;;;;;11.18;9.55;;;18.60;99.90;;;18.16;100.00;101107.22;4149737;28;20453;-72
2023/09/08 05:35:42;;;;;;;12.23;9.50;;;18.60;99.90;;;18.16;100.00;101097.34;4148587;28;20022;-72
2023/09/08 05:37:43;;;;;;;12.57;8.73;;;18.60;99.90;;;18.18;100.00;101100.69;4151769;28;20513;-72
2023/09/08 05:39:44;;;;;;;9.57;8.05;;;18.70;99.90;;;18.20;100.00;101108.47;4152068;28;20057;-72
2023/09/08 05:41:45;;;;;;;10.85;9.00;;;18.70;99.90;;;18.20;100.00;101108.47;4153216;28;20040;-72
2023/09/08 05:43:46;;;;;;;8.70;7.80;;;18.70;99.90;;;18.16;100.00;101105.38;4151677;28;20034;-72
2023/09/08 05:45:47;;;;;;;10.38;9.27;;;18.70;99.90;;;18.19;100.00;101112.16;4150951;28;20025;-73
2023/09/08 05:47:50;;;;;;;14.32;9.63;;;18.70;99.90;;;18.18;100.00;101114.03;4146112;28;20088;-74
2023/09/08 05:49:51;;;;;;;9.23;8.35;;;18.70;99.90;;;18.19;100.00;101110.31;4152955;28;20032;-74
2023/09/08 05:51:53;;;;;;;13.77;9.02;;;18.70;99.90;;;18.23;100.00;101118.75;4152968;28;20034;-74
2023/09/08 05:53:53;;;;;;;9.82;8.73;;;18.70;99.90;;;18.26;100.00;101107.69;4151119;28;20052;-73
2023/09/08 05:55:54;;;;;;;10.40;7.97;;;18.70;99.90;;;18.29;100.00;101111.81;4153033;28;20030;-73
2023/09/08 05:57:55;;;;;;;10.18;8.75;;;18.80;99.90;;;18.34;100.00;101114.72;4151785;28;20022;-73
2023/09/08 05:59:56;;;;;;;9.18;8.10;;;18.80;99.90;;;18.39;100.00;101109.63;4151622;28;20030;-73
2023/09/08 06:01:57;;;;;;;9.00;7.88;;;18.80;99.90;;;18.44;100.00;101115.19;4151820;28;20029;-73
2023/09/08 06:03:58;;;;;;;8.82;7.88;;;18.90;99.90;;;18.49;100.00;101118.94;4151070;28;20390;-73
2023/09/08 06:05:59;;;;;;;10.75;9.40;;;18.90;99.90;;;18.55;100.00;101125.31;4147805;28;20026;-73
2023/09/08 06:07:59;;;;;;;12.13;10.00;;;19.00;99.90;;;18.56;100.00;101125.13;4152798;28;20069;-73
2023/09/08 06:10:00;;;;;;;11.55;8.43;;;19.00;99.90;;;18.63;100.00;101126.00;4152275;28;20018;-72
2023/09/08 06:12:01;;;;;;;9.00;8.10;;;19.00;99.90;;;18.68;100.00;101128.91;4152656;28;20030;-73
2023/09/08 06:14:02;;;;;;;10.90;8.57;;;19.10;99.90;;;18.73;100.00;101126.44;4152311;28;20393;-72
2023/09/08 06:16:03;;;;;;;9.93;8.10;;;19.20;99.90;;;18.83;100.00;101130.59;4151215;28;20037;-73
2023/09/08 06:18:05;;;;;;;9.32;7.80;;;19.20;99.90;;;18.86;100.00;101136.38;4151445;28;20026;-73
2023/09/08 06:20:06;;;;;;;8.43;7.50;;;19.30;99.90;;;18.90;100.00;101136.78;4152644;28;20045;-73
2023/09/08 06:22:07;;;;;;;8.02;7.22;;;19.30;99.90;;;18.93;100.00;101136.38;4150960;28;20029;-73
2023/09/08 06:24:08;;;;;;;10.25;7.97;;;19.40;99.90;;;18.97;100.00;101142.97;4152364;28;20452;-73
2023/09/08 06:26:09;;;;;;;10.35;7.80;;;19.40;99.90;;;18.96;100.00;101144.00;4151724;28;20164;-73
2023/09/08 06:28:10;;;;;;;11.90;8.25;;;19.40;99.90;;;18.96;100.00;101138.66;4152951;28;20029;-74
2023/09/08 06:30:14;;;;;;;8.55;7.38;;;19.40;99.90;;;18.97;100.00;101142.97;4152679;28;20121;-73
2023/09/08 06:32:15;;;;;;;9.23;7.05;;;19.40;99.90;;;19.00;100.00;101142.56;4153027;28;20108;-73
2023/09/08 06:34:16;;;;;;;8.45;7.53;;;19.40;99.90;;;18.98;100.00;101134.75;4152886;28;20034;-73
2023/09/08 06:36:20;;;;;;;8.63;6.88;;;19.40;99.90;;;19.04;100.00;101143.81;4141667;28;20073;-74
2023/09/08 06:38:21;;;;;;;8.32;7.13;;;19.40;99.90;;;19.04;100.00;101133.13;4148945;28;20136;-74
2023/09/08 06:40:22;;;;;;;9.25;7.53;;;19.40;99.90;;;19.08;100.00;101145.09;4143240;28;20113;-73
2023/09/08 06:42:23;;;;;;;9.10;7.28;;;19.50;99.90;;;19.12;100.00;101136.44;4152762;28;20037;-74
2023/09/08 06:44:24;;;;;;;8.68;7.75;;;19.50;99.90;;;19.15;100.00;101143.22;4152613;28;20406;-73
2023/09/08 06:46:25;;;;;;;7.55;6.70;;;19.50;99.90;;;19.19;100.00;101139.97;4152578;28;20022;-74
2023/09/08 06:48:26;;;;;;;7.60;6.88;;;19.60;99.90;;;19.25;100.00;101146.34;4152483;28;20080;-74
2023/09/08 06:50:27;;;;;;;11.07;7.90;;;19.60;99.90;;;19.29;100.00;101143.03;4152777;28;20068;-73
2023/09/08 06:52:27;;;;;;;8.23;7.32;;;19.60;99.90;;;19.36;100.00;101143.06;4152488;28;20061;-74
2023/09/08 06:54:28;;;;;;;8.70;6.75;;;19.60;99.90;;;19.43;100.00;101146.63;4151563;28;20072;-74
2023/09/08 06:56:29;;;;;;;8.07;7.28;;;19.80;99.90;;;19.48;100.00;101146.81;4151177;28;20021;-74
2023/09/08 06:58:30;;;;;;;9.18;6.70;;;19.80;99.90;;;19.58;100.00;101154.44;4144058;28;20050;-74
2023/09/08 07:00:31;;;;;;;9.50;7.57;;;19.90;99.90;;;19.62;100.00;101159.19;4145616;28;20516;-74
2023/09/08 07:02:32;;;;;;;7.75;6.40;;;20.00;99.90;;;19.67;100.00;101156.72;4152580;28;20037;-74
2023/09/08 07:04:33;;;;;;;10.25;7.28;;;20.00;99.90;;;19.70;100.00;101161.69;4152396;28;20911;-74
2023/09/08 07:06:35;;;;;;;8.23;7.38;;;20.10;99.90;;;19.71;100.00;101155.28;4148534;28;20060;-74
2023/09/08 07:08:36;;;;;;;8.35;6.20;;;20.10;99.90;;;19.69;100.00;101159.19;4151297;28;20065;-74
2023/09/08 07:10:37;;;;;;;9.77;7.72;;;20.10;99.90;;;19.65;100.00;101166.78;4152497;28;20029;-74
2023/09/08 07:12:38;;;;;;;8.35;6.57;;;20.00;99.90;;;19.65;100.00;101174.03;4152330;28;20033;-74
2023/09/08 07:14:39;;;;;;;9.95;7.60;;;20.10;99.90;;;19.61;100.00;101165.59;4152441;28;20394;-74
2023/09/08 07:16:40;;;;;;;7.13;6.38;;;20.00;99.90;;;19.62;100.00;101164.53;4151130;28;20022;-73
2023/09/08 07:18:41;;;;;;;8.98;7.03;;;20.00;99.90;;;19.62;100.00;101159.19;4152384;28;20030;-74
2023/09/08 07:20:47;;;;;;;8.27;7.05;;;20.00;99.90;;;19.65;100.00;101164.13;4152219;28;20034;-74
2023/09/08 07:22:48;;;;;;;7.35;6.57;;;20.00;99.90;;;19.66;100.00;101164.94;4150905;28;20026;-73
2023/09/08 07:24:49;;;;;;;7.10;6.40;;;20.00;99.90;;;19.65;100.00;101174.81;4152316;28;20038;-74
2023/09/08 07:26:50;;;;;;;9.00;7.75;;;20.10;99.90;;;19.67;100.00;101175.47;4150614;28;20033;-74
2023/09/08 07:28:51;;;;;;;7.65;6.57;;;20.10;99.90;;;19.64;100.00;101167.84;4152131;28;20029;-74
2023/09/08 07:30:52;;;;;;;8.40;6.70;;;20.10;99.90;;;19.73;100.00;101174.66;4151000;28;20417;-73
2023/09/08 07:32:53;;;;;;;7.57;6.53;;;20.20;99.90;;;19.81;100.00;101189.66;4152497;28;20045;-74
2023/09/08 07:34:54;;;;;;;8.52;6.93;;;20.20;99.90;;;19.90;100.00;101177.72;4150957;28;20033;-74
2023/09/08 07:36:55;;;;;;;6.60;6.00;;;20.30;99.90;;;20.05;100.00;101180.19;4140488;28;20030;-74
2023/09/08 07:38:56;;;;;;;8.30;6.85;;;20.40;99.90;;;20.23;100.00;101183.06;4148355;28;20060;-74
2023/09/08 07:40:59;;;;;;;8.75;5.95;;;20.60;99.90;;;20.44;100.00;101180.19;4152210;28;20034;-74
2023/09/08 07:43:00;;;;;;;6.80;6.10;;;20.80;99.90;;;20.63;100.00;101179.31;4150946;28;20026;-74
2023/09/08 07:45:01;;;;;;;7.30;6.55;;;21.00;99.90;;;20.81;100.00;101178.63;4152073;28;20488;-75
2023/09/08 07:47:02;;;;;;;8.50;7.60;;;21.20;99.90;;;20.93;100.00;101175.06;4152011;28;20034;-74
2023/09/08 07:49:03;;;;;;;7.30;6.60;;;21.40;99.90;;;21.08;100.00;101177.50;4152174;28;20041;-74
2023/09/08 07:51:04;;;;;;;9.15;6.85;;;21.50;99.90;;;21.23;100.00;101179.91;4151808;28;20473;-74
2023/09/08 07:53:05;;;;;;;7.15;6.45;;;21.70;99.90;;;21.33;100.00;101177.56;4149882;28;20048;-73
2023/09/08 07:55:06;;;;;;;6.80;6.07;;;21.80;99.90;;;21.47;100.00;101182.63;4150323;28;20026;-74
2023/09/08 07:57:07;;;;;;;6.95;6.32;;;21.90;99.90;;;21.57;100.00;101170.59;4151586;28;20065;-75
2023/09/08 07:59:08;;;;;;;7.43;6.72;;;22.00;99.90;;;21.69;100.00;101184.97;4151484;28;20100;-73
2023/09/08 08:01:09;;;;;;;7.05;6.28;;;22.10;99.90;;;21.83;100.00;101198.06;4150120;28;20509;-75
2023/09/08 08:03:09;;;;;;;6.72;5.93;;;22.20;99.90;;;21.95;100.00;101199.03;4150240;28;20025;-73
2023/09/08 08:05:10;;;;;;;6.88;6.18;;;22.30;99.90;;;22.08;100.00;101197.28;4142741;28;20034;-72
2023/09/08 08:07:11;;;;;;;7.05;6.35;;;22.30;99.90;;;22.17;100.00;101190.59;4150281;28;20045;-72
2023/09/08 08:09:12;;;;;;;6.43;5.80;;;22.50;99.90;;;22.26;100.00;101194.63;4150683;28;20026;-73
2023/09/08 08:11:15;;;;;;;6.95;5.88;;;22.60;99.90;;;22.35;100.00;101198.69;4154629;28;20026;-72
2023/09/08 08:13:16;;;;;;;6.13;5.43;;;22.70;99.90;;;22.39;100.00;101197.19;4155135;28;20166;-72
2023/09/08 08:15:21;;;;;;;5.50;5.00;;;22.80;99.90;;;22.43;100.00;101193.03;4154029;28;20037;-72
2023/09/08 08:17:22;;;;;;;6.78;5.05;;;22.90;99.90;;;22.48;100.00;101199.38;4154835;28;20092;-72